Time;durP1;ratioP1;P1;durP2;ratioP2;P2;SDS_P1;SDS_P2;PMS_P1;PMS_P2;Temp;Humidity;BMP_temperature;BMP_pressure;BME280_temperature;BME280_humidity;BME280_pressure;Samples;Min_cycle;Max_cycle;Signal;HPM_P1;HPM_P2
2023/10/05 00:02:04;;;;;;;10.23;4.30;;;12.90;99.90;;;;;;6107158;23;20771;-71
2023/10/05 00:04:39;;;;;;;9.83;4.43;;;12.80;99.90;;;;;;6106240;23;20797;-74
2023/10/05 00:07:07;;;;;;;8.13;3.50;;;12.90;99.90;;;;;;6107216;23;20421;-70
2023/10/05 00:09:32;;;;;;;5.77;3.03;;;12.90;99.90;;;;;;6108277;23;20901;-71
2023/10/05 00:12:01;;;;;;;7.53;3.60;;;12.90;99.90;;;;;;6106233;23;20453;-71
2023/10/05 00:14:27;;;;;;;5.40;3.00;;;12.90;99.90;;;;;;6107190;23;20188;-71
2023/10/05 00:16:55;;;;;;;4.30;2.70;;;13.00;99.90;;;;;;6104544;23;20636;-71
2023/10/05 00:19:22;;;;;;;6.03;3.20;;;13.00;99.90;;;;;;6104284;23;20149;-71
2023/10/05 00:21:56;;;;;;;8.27;3.43;;;13.00;99.90;;;;;;6106955;23;20814;-70
2023/10/05 00:24:34;;;;;;;5.77;3.50;;;13.00;99.90;;;;;;6105997;23;20403;-70
2023/10/05 00:27:03;;;;;;;5.67;3.00;;;13.00;99.90;;;;;;6107103;23;20364;-69
2023/10/05 00:29:39;;;;;;;9.33;3.53;;;13.00;99.90;;;;;;6103954;23;20514;-70
2023/10/05 00:32:08;;;;;;;8.30;4.20;;;13.00;99.90;;;;;;6107850;23;20470;-71
2023/10/05 00:34:35;;;;;;;5.80;3.30;;;13.00;99.90;;;;;;6105568;23;20393;-71
2023/10/05 00:37:02;;;;;;;7.03;3.83;;;13.00;99.90;;;;;;6106064;23;20485;-70
2023/10/05 00:39:31;;;;;;;6.70;4.17;;;13.00;99.90;;;;;;6106358;23;20385;-70
2023/10/05 00:44:26;;;;;;;9.47;4.80;;;12.90;99.90;;;;;;6104414;23;20397;-70
2023/10/05 00:46:52;;;;;;;7.30;3.90;;;12.90;99.90;;;;;;6104528;23;20369;-71
2023/10/05 00:49:22;;;;;;;9.73;4.60;;;12.90;99.90;;;;;;6107086;23;20408;-71
2023/10/05 00:51:55;;;;;;;8.37;4.47;;;12.90;99.90;;;;;;6104461;23;20361;-71
2023/10/05 00:54:29;;;;;;;7.30;3.27;;;12.90;99.90;;;;;;6104504;23;20396;-72
2023/10/05 00:57:02;;;;;;;7.03;3.50;;;12.90;99.90;;;;;;6133254;23;20379;-71
2023/10/05 00:59:31;;;;;;;8.17;4.00;;;12.90;99.90;;;;;;6108573;23;20374;-70
2023/10/05 01:04:34;;;;;;;8.93;4.17;;;13.00;99.90;;;;;;6107768;23;20479;-70
2023/10/05 01:07:17;;;;;;;6.60;4.23;;;13.00;99.90;;;;;;6108250;23;20768;-71
2023/10/05 01:14:51;;;;;;;10.67;4.43;;;13.00;99.90;;;;;;6134605;23;20463;-70
2023/10/05 01:17:27;;;;;;;6.70;3.40;;;13.00;99.90;;;;;;6133448;23;20375;-72
2023/10/05 01:19:57;;;;;;;8.03;3.50;;;13.00;99.90;;;;;;6136049;23;20403;-71
2023/10/05 01:22:24;;;;;;;8.00;4.40;;;13.00;99.90;;;;;;6133102;23;20466;-70
2023/10/05 01:24:50;;;;;;;9.60;4.17;;;13.00;99.90;;;;;;6109278;23;20442;-70
2023/10/05 01:27:21;;;;;;;6.90;4.70;;;13.00;99.90;;;;;;6134073;23;20781;-71
2023/10/05 01:29:47;;;;;;;8.03;3.70;;;12.90;99.90;;;;;;6133887;23;20876;-72
2023/10/05 01:32:16;;;;;;;7.40;4.03;;;12.90;99.90;;;;;;6134406;23;20371;-71
2023/10/05 01:34:42;;;;;;;7.10;4.53;;;13.00;99.90;;;;;;6107872;23;20846;-70
2023/10/05 01:37:10;;;;;;;7.10;3.47;;;12.90;99.90;;;;;;6109206;23;20360;-71
2023/10/05 01:39:43;;;;;;;6.43;3.67;;;12.90;99.90;;;;;;6134717;23;20418;-70
2023/10/05 01:42:11;;;;;;;8.80;3.60;;;13.00;99.90;;;;;;6133668;23;20878;-70
2023/10/05 01:44:38;;;;;;;8.37;3.30;;;13.00;99.90;;;;;;6136910;23;20490;-69
2023/10/05 01:47:03;;;;;;;5.33;2.87;;;13.10;99.90;;;;;;6110256;23;20443;-71
2023/10/05 01:49:29;;;;;;;7.07;2.80;;;13.10;99.90;;;;;;6134443;23;20462;-70
2023/10/05 01:51:56;;;;;;;6.47;2.90;;;13.10;99.90;;;;;;6133939;23;20205;-70
2023/10/05 01:54:26;;;;;;;4.60;3.10;;;13.20;99.90;;;;;;6108938;23;20388;-71
2023/10/05 01:56:55;;;;;;;7.27;3.27;;;13.20;99.90;;;;;;6110013;23;20386;-71
2023/10/05 01:59:22;;;;;;;5.80;3.43;;;13.20;99.90;;;;;;6109612;23;20632;-71
2023/10/05 02:01:47;;;;;;;5.70;3.40;;;13.30;99.90;;;;;;6109656;23;20379;-70
2023/10/05 02:04:17;;;;;;;10.23;3.60;;;13.30;99.90;;;;;;6109415;23;20507;-71
2023/10/05 02:06:45;;;;;;;3.00;2.13;;;13.30;99.90;;;;;;6108176;23;20222;-70
2023/10/05 02:09:13;;;;;;;7.53;3.70;;;13.30;99.90;;;;;;6108136;23;20428;-71
2023/10/05 02:11:42;;;;;;;7.27;2.37;;;13.30;99.90;;;;;;6106981;23;20798;-71
2023/10/05 02:14:12;;;;;;;5.40;2.70;;;13.30;99.90;;;;;;6107313;23;20391;-72
2023/10/05 02:16:38;;;;;;;6.13;2.40;;;13.30;99.90;;;;;;6132443;23;20374;-71
2023/10/05 02:19:05;;;;;;;5.30;2.83;;;13.30;99.90;;;;;;6131987;23;20367;-71
2023/10/05 02:21:36;;;;;;;6.03;2.67;;;13.20;99.90;;;;;;6133021;23;20190;-71
2023/10/05 02:24:18;;;;;;;6.40;2.80;;;13.20;99.90;;;;;;6133546;23;20398;-72
2023/10/05 02:29:30;;;;;;;7.40;2.60;;;13.20;99.90;;;;;;6133350;23;20407;-70
2023/10/05 02:34:40;;;;;;;5.83;2.80;;;13.10;99.90;;;;;;6106736;23;20477;-70
2023/10/05 02:37:07;;;;;;;4.37;2.50;;;13.00;99.90;;;;;;6106877;23;20641;-70
2023/10/05 02:39:37;;;;;;;4.63;2.47;;;13.00;99.90;;;;;;6107185;23;20784;-70
2023/10/05 02:42:06;;;;;;;5.23;2.90;;;12.90;99.90;;;;;;6105984;23;20395;-70
2023/10/05 02:44:35;;;;;;;6.17;2.87;;;12.90;99.90;;;;;;6106565;23;20884;-72
2023/10/05 02:47:08;;;;;;;5.97;2.80;;;12.90;99.90;;;;;;6106744;23;20451;-71
2023/10/05 02:49:44;;;;;;;5.27;3.33;;;12.90;99.90;;;;;;6107085;23;20420;-72
2023/10/05 02:52:17;;;;;;;5.40;2.50;;;12.90;99.90;;;;;;6107470;23;20421;-71
2023/10/05 02:54:48;;;;;;;4.67;2.50;;;12.90;99.90;;;;;;6131840;23;20455;-70
2023/10/05 02:57:16;;;;;;;5.70;2.43;;;12.90;99.90;;;;;;6132150;23;20367;-70
2023/10/05 02:59:43;;;;;;;4.47;2.63;;;12.90;99.90;;;;;;6108144;23;20387;-70
2023/10/05 03:02:14;;;;;;;4.97;2.50;;;12.90;99.90;;;;;;6132806;23;20375;-71
2023/10/05 03:05:05;;;;;;;6.63;2.90;;;12.90;99.90;;;;;;6131563;23;20480;-70
2023/10/05 03:07:30;;;;;;;4.63;3.10;;;12.80;99.90;;;;;;6130713;23;20391;-71
2023/10/05 03:10:01;;;;;;;7.33;3.20;;;12.80;99.90;;;;;;6105625;23;20460;-70
2023/10/05 03:12:32;;;;;;;4.80;2.50;;;12.80;99.90;;;;;;6106210;23;20477;-69
2023/10/05 03:15:05;;;;;;;8.80;3.07;;;12.80;99.90;;;;;;6106925;23;20400;-71
2023/10/05 03:17:33;;;;;;;4.70;2.80;;;12.80;99.90;;;;;;6107463;23;20371;-70
2023/10/05 03:19:59;;;;;;;10.07;2.83;;;12.70;99.90;;;;;;6105881;23;20387;-70
2023/10/05 03:22:25;;;;;;;6.20;2.67;;;12.80;99.90;;;;;;6106805;23;20618;-72
2023/10/05 03:24:53;;;;;;;5.50;2.47;;;12.80;99.90;;;;;;6106254;23;20222;-71
2023/10/05 03:27:22;;;;;;;5.80;3.53;;;12.80;99.90;;;;;;6130554;23;20450;-70
2023/10/05 03:29:52;;;;;;;7.63;2.93;;;12.80;99.90;;;;;;6130913;23;20412;-70
2023/10/05 03:32:19;;;;;;;5.13;2.17;;;12.80;99.90;;;;;;6131433;23;20361;-71
2023/10/05 03:34:55;;;;;;;6.70;3.30;;;12.80;99.90;;;;;;6130884;23;20839;-71
2023/10/05 03:37:23;;;;;;;4.67;2.33;;;12.80;99.90;;;;;;6107976;23;20386;-70
2023/10/05 03:42:31;;;;;;;7.73;3.00;;;12.80;99.90;;;;;;6131743;23;20411;-71
2023/10/05 03:45:02;;;;;;;3.80;2.23;;;12.80;99.90;;;;;;6105881;23;20400;-71
2023/10/05 03:47:28;;;;;;;6.20;2.40;;;12.80;99.90;;;;;;6106132;23;20372;-70
2023/10/05 03:49:55;;;;;;;3.80;1.93;;;12.80;99.90;;;;;;6130700;23;20415;-70
2023/10/05 03:52:21;;;;;;;6.03;2.33;;;12.80;99.90;;;;;;6105833;23;20374;-70
2023/10/05 03:54:47;;;;;;;7.80;2.50;;;12.80;99.90;;;;;;6130163;23;20423;-70
2023/10/05 03:57:13;;;;;;;5.90;2.37;;;12.70;99.90;;;;;;6130937;23;20367;-71
2023/10/05 03:59:40;;;;;;;5.57;3.07;;;12.70;99.90;;;;;;6107795;23;20150;-73
2023/10/05 04:02:06;;;;;;;5.80;2.63;;;12.80;99.90;;;;;;6107365;23;20462;-71
2023/10/05 04:04:37;;;;;;;6.30;3.50;;;12.80;99.90;;;;;;6132941;23;20226;-69
2023/10/05 04:07:03;;;;;;;6.30;3.40;;;12.70;99.90;;;;;;6134155;23;20144;-70
2023/10/05 04:09:34;;;;;;;4.87;2.63;;;12.70;99.90;;;;;;6134443;23;20384;-71
2023/10/05 04:12:00;;;;;;;4.97;2.40;;;12.70;99.90;;;;;;6135290;23;20394;-70
2023/10/05 04:14:26;;;;;;;4.00;2.00;;;12.70;99.90;;;;;;6137183;23;20404;-70
2023/10/05 04:16:54;;;;;;;7.87;3.17;;;12.70;99.90;;;;;;6137211;23;20520;-72
2023/10/05 04:19:22;;;;;;;3.70;2.60;;;12.70;99.90;;;;;;6139869;23;20375;-72
2023/10/05 04:21:48;;;;;;;5.93;2.47;;;12.70;99.90;;;;;;6139726;23;20406;-71
2023/10/05 04:24:16;;;;;;;5.77;3.20;;;12.70;99.90;;;;;;6140946;23;20392;-72
2023/10/05 04:26:45;;;;;;;6.90;3.13;;;12.70;99.90;;;;;;6141881;23;20171;-71
2023/10/05 04:29:12;;;;;;;5.40;2.90;;;12.70;99.90;;;;;;6143163;23;20455;-69
2023/10/05 04:31:38;;;;;;;3.60;2.23;;;12.70;99.90;;;;;;6145282;23;20355;-70
2023/10/05 04:34:13;;;;;;;4.57;2.77;;;12.70;99.90;;;;;;6147904;23;20399;-71
2023/10/05 04:36:41;;;;;;;4.63;2.30;;;12.60;99.90;;;;;;6147395;23;20472;-69
2023/10/05 04:39:07;;;;;;;7.20;2.20;;;12.60;99.90;;;;;;6119747;23;20360;-70
2023/10/05 04:41:39;;;;;;;4.30;2.17;;;12.70;99.90;;;;;;6138652;23;20466;-70
2023/10/05 04:44:12;;;;;;;5.77;3.03;;;12.70;99.90;;;;;;6114235;23;20224;-70
2023/10/05 04:46:48;;;;;;;3.40;2.43;;;12.60;99.90;;;;;;6140699;23;20444;-71
2023/10/05 04:49:19;;;;;;;4.77;2.57;;;12.60;99.90;;;;;;6141240;23;20641;-74
2023/10/05 04:51:45;;;;;;;3.90;2.10;;;12.60;99.90;;;;;;6091808;23;20375;-71
2023/10/05 04:54:12;;;;;;;4.57;2.37;;;12.50;99.90;;;;;;6139942;23;20422;-71
2023/10/05 04:56:53;;;;;;;8.17;2.90;;;12.50;99.90;;;;;;6139744;23;20403;-70
2023/10/05 04:59:25;;;;;;;5.17;3.03;;;12.50;99.90;;;;;;6137493;23;20445;-73
2023/10/05 05:07:09;;;;;;;7.80;2.43;;;12.40;99.90;;;;;;6140235;23;20364;-70
2023/10/05 05:09:39;;;;;;;7.50;2.43;;;12.40;99.90;;;;;;6113418;23;20487;-70
2023/10/05 05:12:08;;;;;;;8.73;3.20;;;12.40;99.90;;;;;;6111136;23;20391;-70
2023/10/05 05:14:36;;;;;;;4.27;2.43;;;12.40;99.90;;;;;;6137234;23;20575;-71
2023/10/05 05:17:06;;;;;;;10.23;2.70;;;12.40;99.90;;;;;;6137658;23;20358;-71
2023/10/05 05:19:34;;;;;;;10.30;3.00;;;12.50;99.90;;;;;;6087744;23;20641;-70
2023/10/05 05:22:00;;;;;;;8.73;3.07;;;12.50;99.90;;;;;;6112046;23;20728;-70
2023/10/05 05:24:29;;;;;;;5.50;2.60;;;12.50;99.90;;;;;;6110856;23;20406;-72
2023/10/05 05:27:03;;;;;;;4.70;2.10;;;12.50;99.90;;;;;;6135932;23;20140;-70
2023/10/05 05:29:30;;;;;;;3.17;2.10;;;12.60;99.90;;;;;;6136727;23;20407;-71
2023/10/05 05:31:56;;;;;;;4.17;2.47;;;12.60;99.90;;;;;;6136912;23;20406;-72
2023/10/05 05:34:25;;;;;;;5.47;2.13;;;12.60;99.90;;;;;;6136797;23;20399;-72
2023/10/05 05:36:56;;;;;;;6.70;2.60;;;12.60;99.90;;;;;;6113067;23;20414;-72
2023/10/05 05:39:25;;;;;;;4.23;1.90;;;12.60;99.90;;;;;;6138574;23;20427;-73
2023/10/05 05:41:59;;;;;;;6.70;2.23;;;12.60;99.90;;;;;;6138054;23;20399;-71
2023/10/05 05:44:28;;;;;;;7.47;2.70;;;12.70;99.90;;;;;;6139528;23;20488;-74
2023/10/05 05:46:58;;;;;;;7.30;3.47;;;12.60;99.90;;;;;;6142466;23;20371;-72
2023/10/05 05:49:24;;;;;;;4.90;2.60;;;12.70;99.90;;;;;;6113940;23;20425;-71
2023/10/05 05:51:50;;;;;;;4.30;2.40;;;12.70;99.90;;;;;;6140353;23;20368;-71
2023/10/05 05:54:18;;;;;;;8.03;2.83;;;12.70;99.90;;;;;;6139126;23;20156;-71
2023/10/05 05:56:44;;;;;;;4.90;2.30;;;12.70;99.90;;;;;;6116867;23;20148;-72
2023/10/05 05:59:10;;;;;;;6.67;3.10;;;12.80;99.90;;;;;;6139678;23;20392;-71
2023/10/05 06:01:36;;;;;;;7.20;2.63;;;12.80;99.90;;;;;;6141184;23;20144;-73
2023/10/05 06:04:03;;;;;;;4.17;2.47;;;12.80;99.90;;;;;;6115342;23;20443;-72
2023/10/05 06:06:29;;;;;;;5.17;2.20;;;12.90;99.90;;;;;;6140765;23;20146;-73
2023/10/05 06:08:56;;;;;;;7.70;2.90;;;12.90;99.90;;;;;;6139254;23;20796;-71
2023/10/05 06:11:22;;;;;;;10.90;4.60;;;12.90;99.90;;;;;;6139143;23;20239;-71
2023/10/05 06:13:49;;;;;;;7.80;2.90;;;13.00;99.90;;;;;;6113040;23;20380;-71
2023/10/05 06:16:15;;;;;;;4.70;2.27;;;13.10;99.90;;;;;;6140533;23;20356;-74
2023/10/05 06:18:41;;;;;;;9.07;2.43;;;13.10;99.90;;;;;;6138939;23;20367;-74
2023/10/05 06:21:07;;;;;;;6.17;2.47;;;13.20;99.90;;;;;;6139739;23;20372;-71
2023/10/05 06:23:35;;;;;;;3.97;1.90;;;13.20;99.90;;;;;;6139101;23;20858;-70
2023/10/05 06:26:02;;;;;;;7.70;3.30;;;13.20;99.90;;;;;;6114877;23;20136;-71
2023/10/05 06:28:28;;;;;;;3.70;2.30;;;13.30;99.90;;;;;;6115087;23;20495;-71
2023/10/05 06:30:54;;;;;;;6.53;2.80;;;13.30;99.90;;;;;;6141515;23;20410;-73
2023/10/05 06:33:20;;;;;;;6.37;2.60;;;13.40;99.90;;;;;;6141921;23;20814;-71
2023/10/05 06:35:46;;;;;;;3.00;1.73;;;13.50;99.90;;;;;;6140480;23;20360;-70
2023/10/05 06:38:12;;;;;;;5.70;2.20;;;13.50;99.90;;;;;;6116524;23;20391;-72
2023/10/05 06:40:38;;;;;;;4.33;2.27;;;13.50;99.90;;;;;;6140293;23;20356;-71
2023/10/05 06:43:07;;;;;;;5.10;2.37;;;13.60;99.90;;;;;;6141251;23;20387;-71
2023/10/05 06:45:32;;;;;;;5.90;2.93;;;13.70;99.90;;;;;;6116479;23;20148;-72
2023/10/05 06:47:58;;;;;;;7.63;2.60;;;13.70;99.90;;;;;;6115239;23;20802;-72
2023/10/05 06:50:24;;;;;;;3.23;1.77;;;13.80;99.90;;;;;;6141943;23;20191;-77
2023/10/05 06:52:50;;;;;;;3.57;2.17;;;13.80;99.90;;;;;;6141232;23;20364;-74
2023/10/05 06:55:21;;;;;;;3.87;1.73;;;13.80;99.90;;;;;;6100198;23;20189;-72
2023/10/05 06:57:50;;;;;;;9.93;2.33;;;13.90;99.90;;;;;;6083524;23;20168;-74
2023/10/05 07:00:21;;;;;;;5.03;2.47;;;13.90;99.90;;;;;;6083797;23;20384;-71
2023/10/05 07:02:52;;;;;;;3.23;1.87;;;14.00;99.90;;;;;;6084444;23;20369;-74
2023/10/05 07:05:18;;;;;;;4.57;2.30;;;14.10;99.90;;;;;;6085289;23;20460;-75
2023/10/05 07:07:44;;;;;;;8.80;2.70;;;14.00;99.90;;;;;;6061162;23;20385;-74
2023/10/05 07:10:14;;;;;;;5.50;2.00;;;14.10;99.90;;;;;;6084688;23;20181;-72
2023/10/05 07:12:42;;;;;;;4.23;2.30;;;14.20;99.90;;;;;;6083995;23;20481;-73
2023/10/05 07:15:18;;;;;;;4.87;2.13;;;14.20;99.90;;;;;;6062364;23;20369;-77
2023/10/05 07:17:45;;;;;;;7.77;3.17;;;14.30;99.90;;;;;;6059737;23;20382;-74
2023/10/05 07:20:11;;;;;;;6.90;2.30;;;14.40;99.90;;;;;;6038324;23;20393;-73
2023/10/05 07:22:41;;;;;;;4.40;2.77;;;14.40;99.90;;;;;;6065127;23;20381;-73
2023/10/05 07:25:20;;;;;;;4.20;2.17;;;14.40;99.90;;;;;;6085719;23;20421;-74
2023/10/05 07:27:47;;;;;;;7.33;2.30;;;14.50;99.90;;;;;;6062707;23;20374;-74
2023/10/05 07:30:14;;;;;;;4.60;2.50;;;14.50;99.90;;;;;;6085629;23;20427;-74
2023/10/05 07:32:42;;;;;;;6.53;2.57;;;14.60;99.90;;;;;;6087315;23;20413;-72
2023/10/05 07:35:12;;;;;;;6.07;2.43;;;14.60;99.90;;;;;;6086698;23;20400;-76
2023/10/05 07:37:38;;;;;;;3.97;2.30;;;14.60;99.90;;;;;;6084619;23;20378;-72
2023/10/05 07:40:07;;;;;;;5.13;2.53;;;14.70;99.90;;;;;;6085969;23;20376;-76
2023/10/05 07:42:33;;;;;;;5.70;2.23;;;14.70;99.90;;;;;;6086753;23;20158;-77
2023/10/05 07:45:01;;;;;;;3.60;1.90;;;14.80;99.90;;;;;;6086327;23;20449;-74
2023/10/05 07:47:27;;;;;;;6.23;2.23;;;14.90;99.90;;;;;;6084077;23;20389;-73
2023/10/05 07:49:56;;;;;;;3.03;1.60;;;15.00;99.90;;;;;;6084817;23;20234;-74
2023/10/05 07:52:22;;;;;;;4.20;2.00;;;15.00;99.90;;;;;;6061234;23;20782;-75
2023/10/05 07:54:49;;;;;;;2.17;1.57;;;15.00;99.90;;;;;;6085198;23;20444;-74
2023/10/05 07:57:15;;;;;;;5.13;2.07;;;15.10;99.90;;;;;;6086996;23;20346;-75
2023/10/05 07:59:42;;;;;;;4.70;2.20;;;15.20;99.90;;;;;;6084193;23;20164;-73
2023/10/05 08:02:15;;;;;;;4.13;2.20;;;15.30;99.90;;;;;;6063750;23;20648;-74
2023/10/05 08:04:42;;;;;;;3.67;1.50;;;15.30;99.90;;;;;;6087531;23;20401;-76
2023/10/05 08:07:08;;;;;;;3.77;2.10;;;15.50;99.90;;;;;;6109956;23;20382;-74
2023/10/05 08:09:34;;;;;;;6.43;1.93;;;15.60;99.90;;;;;;6086205;23;20413;-72
2023/10/05 08:12:00;;;;;;;6.50;2.40;;;15.80;99.90;;;;;;6063341;23;20398;-74
2023/10/05 08:14:27;;;;;;;5.23;2.80;;;15.90;99.90;;;;;;6085055;23;20161;-73
2023/10/05 08:16:57;;;;;;;5.13;2.60;;;16.10;99.90;;;;;;6086160;23;20193;-76
2023/10/05 08:19:28;;;;;;;7.73;3.17;;;16.20;99.90;;;;;;6066291;23;20383;-76
2023/10/05 08:22:11;;;;;;;8.20;3.00;;;16.30;99.90;;;;;;6089978;23;20387;-74
2023/10/05 08:24:38;;;;;;;7.73;3.13;;;16.40;99.90;;;;;;6039873;23;20405;-76
2023/10/05 08:27:04;;;;;;;9.70;3.50;;;16.30;99.90;;;;;;6066461;23;20405;-75
2023/10/05 08:29:30;;;;;;;5.10;2.70;;;16.30;99.90;;;;;;6090850;23;20405;-75
2023/10/05 08:31:56;;;;;;;10.80;3.50;;;16.30;99.90;;;;;;6088753;23;20510;-73
2023/10/05 08:34:32;;;;;;;8.53;2.93;;;16.30;99.90;;;;;;6087985;23;20156;-74
2023/10/05 08:36:58;;;;;;;7.80;2.67;;;16.30;99.90;;;;;;6089340;23;20373;-77
2023/10/05 08:39:26;;;;;;;6.17;3.20;;;16.40;99.90;;;;;;6064647;23;20370;-73
2023/10/05 08:42:06;;;;;;;11.60;2.90;;;16.50;99.90;;;;;;6087046;23;20373;-76
2023/10/05 08:44:41;;;;;;;6.13;2.80;;;16.60;99.90;;;;;;6090184;23;20671;-75
2023/10/05 08:47:12;;;;;;;10.17;3.00;;;16.70;99.90;;;;;;6091046;23;20399;-74
2023/10/05 08:49:43;;;;;;;5.90;2.90;;;16.70;99.90;;;;;;6091684;23;20395;-78
2023/10/05 08:52:18;;;;;;;5.73;2.50;;;16.70;99.90;;;;;;6090341;23;20374;-75
2023/10/05 08:54:46;;;;;;;16.47;3.37;;;16.70;99.90;;;;;;6088545;23;20483;-75
2023/10/05 08:57:14;;;;;;;8.17;2.37;;;16.60;99.90;;;;;;6087971;23;20384;-75
2023/10/05 08:59:47;;;;;;;9.23;3.13;;;16.60;99.90;;;;;;6088955;23;20390;-74
2023/10/05 09:02:19;;;;;;;6.27;2.97;;;16.70;99.90;;;;;;6086867;23;20429;-75
2023/10/05 09:04:59;;;;;;;7.27;2.57;;;16.70;99.90;;;;;;6040556;23;20409;-75
2023/10/05 09:07:37;;;;;;;7.13;2.50;;;16.70;99.90;;;;;;6066489;23;20395;-75
2023/10/05 09:10:24;;;;;;;9.00;2.73;;;16.70;99.90;;;;;;6088201;23;20439;-76
2023/10/05 09:12:58;;;;;;;7.63;2.70;;;16.90;99.90;;;;;;6088680;23;20393;-76
2023/10/05 09:15:28;;;;;;;6.70;2.87;;;16.80;99.90;;;;;;6068471;23;20456;-74
2023/10/05 09:18:17;;;;;;;10.90;3.00;;;17.00;99.90;;;;;;6089699;23;20368;-74
2023/10/05 09:20:53;;;;;;;7.93;2.70;;;16.90;99.40;;;;;;6089849;23;20377;-75
2023/10/05 09:23:24;;;;;;;11.47;4.40;;;16.90;99.90;;;;;;6063419;23;20408;-74
2023/10/05 09:25:50;;;;;;;9.50;3.30;;;16.90;99.30;;;;;;6089196;23;20396;-73
2023/10/05 09:29:12;;;;;;;8.93;2.77;;;16.90;99.00;;;;;;6066148;23;20455;-73
2023/10/05 09:31:50;;;;;;;8.77;3.07;;;16.90;98.00;;;;;;6086692;23;20207;-73
2023/10/05 09:34:20;;;;;;;9.30;2.80;;;16.90;98.50;;;;;;6061667;23;20485;-75
2023/10/05 09:36:53;;;;;;;10.30;3.17;;;17.00;98.50;;;;;;6090104;23;20396;-76
2023/10/05 09:39:21;;;;;;;10.23;3.67;;;17.10;97.60;;;;;;6089891;23;20398;-73
2023/10/05 09:41:51;;;;;;;9.07;3.50;;;17.00;97.30;;;;;;6065224;23;20393;-74
2023/10/05 09:44:18;;;;;;;6.13;2.70;;;17.00;97.20;;;;;;6062752;23;20487;-75
2023/10/05 09:46:46;;;;;;;5.90;2.97;;;17.00;97.20;;;;;;6062186;23;20392;-77
2023/10/05 09:49:14;;;;;;;7.67;3.27;;;17.10;96.50;;;;;;6065729;23;20399;-75
2023/10/05 09:51:43;;;;;;;13.43;3.30;;;17.10;95.20;;;;;;6061528;23;20440;-75
2023/10/05 09:54:10;;;;;;;13.37;2.70;;;17.00;94.80;;;;;;6039806;23;20830;-74
2023/10/05 09:56:41;;;;;;;6.50;2.43;;;17.00;95.00;;;;;;6065824;23;20432;-75
2023/10/05 09:59:15;;;;;;;6.50;2.53;;;17.10;94.90;;;;;;6040139;23;20409;-77
2023/10/05 10:01:49;;;;;;;10.90;2.40;;;17.10;93.70;;;;;;6062936;23;20484;-76
2023/10/05 10:04:35;;;;;;;8.00;2.90;;;17.00;94.30;;;;;;6040043;23;20440;-73
2023/10/05 10:07:09;;;;;;;7.80;2.93;;;17.10;93.90;;;;;;6061962;23;20365;-75
2023/10/05 10:09:39;;;;;;;7.43;2.43;;;17.20;93.80;;;;;;6057756;23;20418;-76
2023/10/05 10:12:10;;;;;;;9.50;3.47;;;17.30;93.80;;;;;;6058114;23;20390;-76
2023/10/05 10:14:41;;;;;;;7.93;3.53;;;17.50;92.40;;;;;;6005167;23;20396;-75
2023/10/05 10:17:24;;;;;;;9.60;3.00;;;17.50;92.10;;;;;;6003937;23;20383;-69
2023/10/05 10:19:55;;;;;;;5.43;2.23;;;17.60;92.10;;;;;;6002811;23;20384;-70
2023/10/05 10:22:28;;;;;;;9.17;3.27;;;17.60;91.90;;;;;;6003356;23;20418;-74
2023/10/05 10:24:56;;;;;;;4.10;2.50;;;17.70;91.60;;;;;;6005200;23;20431;-76
2023/10/05 10:30:24;;;;;;;7.53;2.40;;;17.80;90.00;;;;;;6136008;23;20430;-76
2023/10/05 10:33:35;;;;;;;5.90;2.30;;;17.70;89.50;;;;;;6131722;23;20401;-77
2023/10/05 10:36:04;;;;;;;5.10;2.97;;;17.80;89.70;;;;;;6137361;23;20382;-57
2023/10/05 10:38:30;;;;;;;9.33;2.30;;;17.80;89.60;;;;;;6160711;23;20397;-58
2023/10/05 10:41:07;;;;;;;5.47;2.13;;;17.90;88.60;;;;;;6133839;23;20375;-58
2023/10/05 10:43:33;;;;;;;4.80;2.57;;;17.90;89.40;;;;;;6158981;23;20393;-58
2023/10/05 10:46:12;;;;;;;5.07;2.07;;;17.90;87.50;;;;;;6160844;23;20792;-52
2023/10/05 10:48:53;;;;;;;4.83;2.30;;;18.00;87.20;;;;;;6134345;23;20380;-57
2023/10/05 10:51:21;;;;;;;6.30;3.07;;;18.10;87.00;;;;;;6160662;23;20717;-55
2023/10/05 10:53:52;;;;;;;8.07;3.00;;;18.10;85.60;;;;;;6159682;23;20497;-53
2023/10/05 10:56:27;;;;;;;7.63;2.20;;;18.10;84.50;;;;;;6133917;23;20378;-54
2023/10/05 10:59:07;;;;;;;7.90;2.47;;;18.20;84.10;;;;;;6134944;23;20658;-54
2023/10/05 11:01:42;;;;;;;10.77;2.80;;;18.20;83.20;;;;;;6159610;23;20417;-55
2023/10/05 11:04:25;;;;;;;10.03;3.37;;;18.20;82.90;;;;;;6159341;23;20393;-52
2023/10/05 11:07:08;;;;;;;9.10;3.10;;;18.20;82.60;;;;;;6160906;23;20365;-51
2023/10/05 11:09:52;;;;;;;5.03;2.40;;;18.20;83.20;;;;;;6159704;23;20418;-56
2023/10/05 11:12:21;;;;;;;10.13;3.27;;;18.30;83.50;;;;;;6159310;23;20374;-54
2023/10/05 11:14:51;;;;;;;4.57;2.50;;;18.30;82.80;;;;;;6159600;23;20406;-58
2023/10/05 11:17:24;;;;;;;5.17;2.10;;;18.40;82.80;;;;;;6160170;23;20414;-56
2023/10/05 11:19:50;;;;;;;8.63;2.80;;;18.50;80.90;;;;;;6158326;23;20360;-55
2023/10/05 11:22:23;;;;;;;7.57;2.47;;;18.30;80.30;;;;;;6159428;23;20382;-52
2023/10/05 11:25:23;;;;;;;10.80;3.40;;;18.40;81.40;;;;;;6158846;23;20433;-56
2023/10/05 11:27:56;;;;;;;6.63;3.10;;;18.40;78.60;;;;;;6159357;23;20401;-56
2023/10/05 11:30:48;;;;;;;5.63;2.63;;;18.30;79.90;;;;;;6159535;23;20434;-53
2023/10/05 11:33:17;;;;;;;6.70;2.50;;;18.30;79.60;;;;;;6159256;23;20457;-56
2023/10/05 11:35:51;;;;;;;4.77;2.13;;;18.40;78.80;;;;;;6159973;23;20363;-54
2023/10/05 11:38:19;;;;;;;6.17;2.37;;;18.50;78.80;;;;;;6160021;23;20624;-52
2023/10/05 11:40:55;;;;;;;9.93;3.10;;;18.50;77.50;;;;;;6159634;23;20409;-48
2023/10/05 11:43:22;;;;;;;10.43;3.10;;;18.40;77.30;;;;;;6158431;23;20398;-54
2023/10/05 11:45:59;;;;;;;12.80;3.33;;;18.30;78.50;;;;;;6159678;23;20369;-52
2023/10/05 11:48:40;;;;;;;13.33;2.73;;;18.30;76.80;;;;;;6159617;23;20374;-56
2023/10/05 11:51:13;;;;;;;7.87;2.93;;;18.20;77.30;;;;;;6159969;23;20414;-50
2023/10/05 11:53:39;;;;;;;5.13;2.23;;;18.20;77.80;;;;;;6133341;23;20413;-51
2023/10/05 11:56:06;;;;;;;9.30;2.77;;;18.20;78.40;;;;;;6160381;23;20359;-52
2023/10/05 11:58:37;;;;;;;8.90;2.67;;;18.20;77.60;;;;;;6159559;23;20359;-54
2023/10/05 12:01:03;;;;;;;5.93;2.70;;;18.10;77.60;;;;;;6159337;23;20482;-53
2023/10/05 12:03:30;;;;;;;3.43;2.33;;;18.10;78.00;;;;;;6158523;23;20406;-52
2023/10/05 12:06:08;;;;;;;4.20;2.30;;;18.10;79.20;;;;;;6159409;23;20856;-54
2023/10/05 12:08:34;;;;;;;5.03;2.13;;;18.20;78.50;;;;;;6160123;23;20355;-53
2023/10/05 12:11:00;;;;;;;4.70;2.37;;;18.10;78.20;;;;;;6159344;23;20406;-50
2023/10/05 12:13:26;;;;;;;8.80;2.60;;;18.10;78.20;;;;;;6158426;23;20783;-53
2023/10/05 12:15:52;;;;;;;7.13;2.50;;;18.10;76.70;;;;;;6159829;23;20210;-53
2023/10/05 12:18:18;;;;;;;12.97;3.30;;;18.00;77.60;;;;;;6159522;23;20367;-51
2023/10/05 12:20:43;;;;;;;6.90;2.57;;;17.90;78.80;;;;;;6159304;23;20136;-53
2023/10/05 12:23:14;;;;;;;5.70;2.53;;;17.90;78.60;;;;;;6158924;23;20174;-50
2023/10/05 12:25:41;;;;;;;8.67;3.00;;;17.80;77.30;;;;;;6158710;23;20383;-54
2023/10/05 12:28:08;;;;;;;5.97;2.10;;;17.90;76.80;;;;;;6158734;23;20446;-52
2023/10/05 12:30:35;;;;;;;5.13;2.20;;;17.90;77.40;;;;;;6159071;23;20442;-50
2023/10/05 12:33:03;;;;;;;4.90;2.70;;;17.90;76.80;;;;;;6159227;23;20387;-52
2023/10/05 12:35:29;;;;;;;4.90;2.60;;;17.80;77.00;;;;;;6160785;23;20624;-50
2023/10/05 12:37:58;;;;;;;4.93;2.30;;;17.90;76.40;;;;;;6161384;23;20680;-52
2023/10/05 12:40:26;;;;;;;5.03;2.30;;;18.00;76.70;;;;;;6161399;23;20776;-50
2023/10/05 12:42:52;;;;;;;7.27;2.90;;;18.10;75.80;;;;;;6161309;23;20637;-50
2023/10/05 12:45:21;;;;;;;5.43;2.10;;;18.20;75.20;;;;;;6160541;23;20362;-53
2023/10/05 12:47:48;;;;;;;6.50;2.50;;;18.20;74.60;;;;;;6160655;23;20767;-54
2023/10/05 12:50:14;;;;;;;9.87;2.33;;;18.30;74.70;;;;;;6160696;23;20469;-53
2023/10/05 12:52:40;;;;;;;7.67;2.40;;;18.30;75.20;;;;;;6160461;23;20359;-51
2023/10/05 12:55:08;;;;;;;5.93;2.50;;;18.40;75.70;;;;;;6134147;23;20176;-54
2023/10/05 12:57:34;;;;;;;5.83;2.43;;;18.50;75.10;;;;;;6160876;23;20363;-53
2023/10/05 12:59:59;;;;;;;5.60;2.83;;;18.60;75.30;;;;;;6134585;23;20469;-51
2023/10/05 13:02:25;;;;;;;6.03;3.13;;;18.70;74.50;;;;;;6160917;23;20193;-54
2023/10/05 13:04:51;;;;;;;7.17;2.80;;;18.80;74.10;;;;;;6160769;23;20242;-57
2023/10/05 13:07:21;;;;;;;6.17;2.23;;;19.00;73.80;;;;;;6161247;23;20220;-54
2023/10/05 13:09:59;;;;;;;7.43;3.43;;;19.30;73.50;;;;;;6161670;23;20671;-51
2023/10/05 13:12:27;;;;;;;5.30;2.63;;;19.50;71.60;;;;;;6159807;23;20374;-51
2023/10/05 13:14:54;;;;;;;4.90;2.07;;;19.60;70.20;;;;;;6160655;23;20387;-52
2023/10/05 13:17:20;;;;;;;7.00;2.37;;;19.50;69.40;;;;;;6160543;23;20378;-52
2023/10/05 13:19:45;;;;;;;8.20;2.33;;;19.50;69.70;;;;;;6158690;23;20457;-48
2023/10/05 13:22:11;;;;;;;9.13;2.60;;;19.40;70.10;;;;;;6160121;23;20140;-50
2023/10/05 13:24:36;;;;;;;10.40;3.60;;;19.30;69.90;;;;;;6159637;23;20159;-55
2023/10/05 13:27:07;;;;;;;5.57;2.47;;;19.30;71.00;;;;;;6160537;23;20139;-52